Time;durP1;ratioP1;P1;durP2;ratioP2;P2;SDS_P1;SDS_P2;PMS_P1;PMS_P2;Temp;Humidity;BMP_temperature;BMP_pressure;BME280_temperature;BME280_humidity;BME280_pressure;Samples;Min_cycle;Max_cycle;Signal;HPM_P1;HPM_P2
2024/03/22 00:02:10;;;;;;;33.70;23.30;;;8.60;90.00;;;;;;5116044;28;20284;-86
2024/03/22 00:04:36;;;;;;;35.27;22.83;;;8.60;89.90;;;;;;5115523;28;20173;-87
2024/03/22 00:07:03;;;;;;;31.63;21.40;;;8.60;89.80;;;;;;5117416;28;20192;-87
2024/03/22 00:09:28;;;;;;;24.97;21.17;;;8.70;89.60;;;;;;5115376;28;20269;-87
2024/03/22 00:11:54;;;;;;;40.00;22.83;;;8.70;89.50;;;;;;5115566;28;20677;-87
2024/03/22 00:14:19;;;;;;;31.47;20.33;;;8.60;89.60;;;;;;5116861;28;20641;-86
2024/03/22 00:16:45;;;;;;;27.27;18.77;;;8.60;89.80;;;;;;5115470;28;20174;-86
2024/03/22 00:19:10;;;;;;;43.20;21.10;;;8.60;89.70;;;;;;5116552;28;20198;-85
2024/03/22 00:21:36;;;;;;;30.93;18.07;;;8.70;89.60;;;;;;5116617;28;20186;-86
2024/03/22 00:24:01;;;;;;;27.53;18.47;;;8.70;89.50;;;;;;5116687;27;20185;-86
2024/03/22 00:26:27;;;;;;;31.97;21.07;;;8.70;89.40;;;;;;5116619;28;20174;-86
2024/03/22 00:28:53;;;;;;;31.33;20.83;;;8.70;89.50;;;;;;5116609;28;20288;-85
2024/03/22 00:31:18;;;;;;;31.10;24.63;;;8.70;89.40;;;;;;5115902;28;20244;-86
2024/03/22 00:33:44;;;;;;;34.00;26.30;;;8.70;89.60;;;;;;5116277;28;20254;-85
2024/03/22 00:36:10;;;;;;;32.90;25.57;;;8.70;89.70;;;;;;5116366;27;20173;-86
2024/03/22 00:38:35;;;;;;;33.27;26.93;;;8.70;89.50;;;;;;5114855;28;20177;-86
2024/03/22 00:41:01;;;;;;;32.87;24.10;;;8.80;89.40;;;;;;5116093;28;20642;-86
2024/03/22 00:43:27;;;;;;;34.60;25.67;;;8.70;89.50;;;;;;5116132;27;20181;-86
2024/03/22 00:45:52;;;;;;;33.50;25.77;;;8.80;89.40;;;;;;5114534;28;20661;-86
2024/03/22 00:48:18;;;;;;;35.20;26.37;;;8.80;89.30;;;;;;5116257;28;20193;-86
2024/03/22 00:50:44;;;;;;;31.97;25.30;;;8.80;89.50;;;;;;5114734;28;20197;-86
2024/03/22 00:53:10;;;;;;;30.43;25.30;;;8.70;89.70;;;;;;5116250;28;20766;-86
2024/03/22 00:55:35;;;;;;;30.33;23.07;;;8.80;89.50;;;;;;5116021;28;20165;-87
2024/03/22 00:58:01;;;;;;;32.50;23.57;;;8.80;89.50;;;;;;5115718;28;20182;-86
2024/03/22 01:00:26;;;;;;;32.27;25.63;;;8.80;89.40;;;;;;5114524;28;20170;-86
2024/03/22 01:02:52;;;;;;;28.83;24.80;;;8.70;89.60;;;;;;5115781;28;20197;-86
2024/03/22 01:05:17;;;;;;;29.43;23.23;;;8.70;89.40;;;;;;5114376;28;20189;-86
2024/03/22 01:07:43;;;;;;;32.97;25.87;;;8.80;89.30;;;;;;5114332;28;20267;-86
2024/03/22 01:10:10;;;;;;;28.90;24.37;;;8.80;89.40;;;;;;5115984;28;20170;-86
2024/03/22 01:12:35;;;;;;;32.03;24.80;;;8.70;89.80;;;;;;5114194;28;20196;-86
2024/03/22 01:15:01;;;;;;;31.30;24.13;;;8.70;89.60;;;;;;5115393;28;20254;-86
2024/03/22 01:17:26;;;;;;;36.43;25.43;;;8.80;89.20;;;;;;5115418;27;20166;-86
2024/03/22 01:19:52;;;;;;;31.60;25.30;;;8.80;89.30;;;;;;5114170;28;20181;-86
2024/03/22 01:22:18;;;;;;;29.43;24.63;;;8.80;89.00;;;;;;5115416;28;20198;-86
2024/03/22 01:24:44;;;;;;;28.73;25.63;;;8.80;89.30;;;;;;5115291;28;20279;-85
2024/03/22 01:27:10;;;;;;;37.20;25.50;;;8.80;89.30;;;;;;5114063;28;20527;-86
2024/03/22 01:29:36;;;;;;;32.13;25.70;;;8.80;89.20;;;;;;5115272;28;20284;-86
2024/03/22 01:32:02;;;;;;;34.23;27.43;;;8.80;89.40;;;;;;5115208;28;20273;-86
2024/03/22 01:34:27;;;;;;;28.20;23.80;;;8.80;89.50;;;;;;5113702;28;20252;-86
2024/03/22 01:36:53;;;;;;;30.90;25.13;;;8.80;89.50;;;;;;5113985;28;20278;-86
2024/03/22 01:39:21;;;;;;;30.93;21.87;;;8.80;89.30;;;;;;5115280;28;20720;-86
2024/03/22 01:41:47;;;;;;;27.90;19.87;;;8.80;89.40;;;;;;5115107;28;20250;-86
2024/03/22 01:44:13;;;;;;;30.67;21.97;;;8.80;89.20;;;;;;5113607;28;20170;-85
2024/03/22 01:46:40;;;;;;;28.03;22.23;;;8.90;89.00;;;;;;5113451;28;20646;-87
2024/03/22 01:49:06;;;;;;;30.50;21.53;;;8.80;89.10;;;;;;5113413;28;20193;-86
2024/03/22 01:51:32;;;;;;;29.50;20.07;;;8.90;89.20;;;;;;5114563;28;20216;-86
2024/03/22 01:54:01;;;;;;;28.57;23.77;;;8.90;89.10;;;;;;5114630;28;20166;-86
2024/03/22 01:56:26;;;;;;;30.13;24.17;;;8.80;89.40;;;;;;5115268;28;20170;-86
2024/03/22 01:58:52;;;;;;;34.90;26.13;;;8.90;89.20;;;;;;5114655;28;20296;-86
2024/03/22 02:01:18;;;;;;;33.73;26.37;;;8.90;89.30;;;;;;5113210;28;20174;-86
2024/03/22 02:03:43;;;;;;;35.27;24.93;;;9.00;89.30;;;;;;5114673;28;20209;-86
2024/03/22 02:06:09;;;;;;;35.40;21.87;;;8.90;89.30;;;;;;5114617;28;20677;-85
2024/03/22 02:08:35;;;;;;;36.60;25.80;;;8.90;89.50;;;;;;5114709;28;20186;-86
2024/03/22 02:11:01;;;;;;;36.77;26.50;;;9.00;89.40;;;;;;5112444;28;20205;-86
2024/03/22 02:13:27;;;;;;;36.03;24.67;;;8.90;89.40;;;;;;5112982;28;20178;-86
2024/03/22 02:15:52;;;;;;;31.97;24.37;;;9.00;89.20;;;;;;5113266;28;20251;-86
2024/03/22 02:18:18;;;;;;;40.40;25.10;;;9.00;89.20;;;;;;5113416;28;20216;-86
2024/03/22 02:20:43;;;;;;;41.20;27.80;;;9.00;89.20;;;;;;5113333;28;20215;-86
2024/03/22 02:23:09;;;;;;;35.33;26.93;;;9.00;89.30;;;;;;5113104;28;20197;-86
2024/03/22 02:25:34;;;;;;;41.97;29.73;;;9.00;89.40;;;;;;5114379;28;20198;-86
2024/03/22 02:28:00;;;;;;;46.40;30.43;;;9.10;89.40;;;;;;5114405;28;20233;-86
2024/03/22 02:30:25;;;;;;;48.10;30.93;;;9.10;89.50;;;;;;5114587;28;20176;-86
2024/03/22 02:32:51;;;;;;;43.20;30.67;;;9.10;89.40;;;;;;5113171;28;20238;-86
2024/03/22 02:35:16;;;;;;;43.87;30.47;;;9.10;89.40;;;;;;5113126;28;20563;-87
2024/03/22 02:37:42;;;;;;;40.30;28.80;;;9.10;89.50;;;;;;5112919;28;20189;-87
2024/03/22 02:40:08;;;;;;;44.33;30.83;;;9.10;89.50;;;;;;5112944;28;20181;-86
2024/03/22 02:42:33;;;;;;;41.73;28.83;;;9.10;89.60;;;;;;5114308;28;20741;-86
2024/03/22 02:44:59;;;;;;;47.40;31.43;;;9.10;89.70;;;;;;5112734;28;20177;-86
2024/03/22 02:47:24;;;;;;;45.57;32.00;;;9.10;89.80;;;;;;5114135;28;20166;-86
2024/03/22 02:49:50;;;;;;;43.07;29.60;;;9.10;89.80;;;;;;5114024;28;20729;-86
2024/03/22 02:52:15;;;;;;;36.93;26.93;;;9.10;90.00;;;;;;5112680;28;20201;-86
2024/03/22 02:54:41;;;;;;;48.63;32.90;;;9.10;89.80;;;;;;5113061;28;20184;-86
2024/03/22 02:57:06;;;;;;;44.57;32.43;;;9.20;89.50;;;;;;5113964;28;20187;-87
2024/03/22 02:59:32;;;;;;;46.90;33.27;;;9.20;89.70;;;;;;5112911;28;20265;-86
2024/03/22 03:01:57;;;;;;;48.90;33.80;;;9.10;89.90;;;;;;5114157;28;20190;-87
2024/03/22 03:04:23;;;;;;;47.17;31.83;;;9.10;89.80;;;;;;5112705;28;20188;-86
2024/03/22 03:06:48;;;;;;;50.97;33.97;;;9.20;89.90;;;;;;5113973;28;20264;-87
2024/03/22 03:09:14;;;;;;;51.30;34.37;;;9.20;89.80;;;;;;5113864;28;20205;-86
2024/03/22 03:11:40;;;;;;;47.50;34.30;;;9.20;89.70;;;;;;5112747;28;20194;-86
2024/03/22 03:14:06;;;;;;;46.20;31.47;;;9.20;89.80;;;;;;5113972;28;20170;-86
2024/03/22 03:16:32;;;;;;;52.17;38.43;;;9.20;89.80;;;;;;5112549;28;20258;-86
2024/03/22 03:18:57;;;;;;;54.63;39.93;;;9.20;90.10;;;;;;5113950;28;20226;-86
2024/03/22 03:21:23;;;;;;;57.93;39.13;;;9.20;90.10;;;;;;5114227;28;20226;-86
2024/03/22 03:23:48;;;;;;;57.43;38.80;;;9.20;90.20;;;;;;5116502;28;20170;-86
2024/03/22 03:26:14;;;;;;;53.53;38.63;;;9.20;90.10;;;;;;5116448;28;20196;-86
2024/03/22 03:28:39;;;;;;;56.87;38.97;;;9.20;90.10;;;;;;5116339;28;20263;-85
2024/03/22 03:31:05;;;;;;;52.83;36.90;;;9.20;90.20;;;;;;5117418;28;20223;-86
2024/03/22 03:33:30;;;;;;;50.00;35.87;;;9.20;90.40;;;;;;5117384;28;20166;-88
2024/03/22 03:35:56;;;;;;;54.90;40.67;;;9.30;90.10;;;;;;5116317;28;20174;-86
2024/03/22 03:38:22;;;;;;;57.33;40.50;;;9.20;90.10;;;;;;5116612;28;20178;-86
2024/03/22 03:40:47;;;;;;;58.40;40.27;;;9.20;90.20;;;;;;5116359;28;20645;-86
2024/03/22 03:43:13;;;;;;;60.60;40.53;;;9.20;90.30;;;;;;5116368;28;20673;-86
2024/03/22 03:45:39;;;;;;;60.63;39.07;;;9.20;90.20;;;;;;5116193;28;20189;-87
2024/03/22 03:48:04;;;;;;;55.37;40.73;;;9.20;90.30;;;;;;5116443;28;20580;-86
2024/03/22 03:50:30;;;;;;;58.37;39.10;;;9.30;90.30;;;;;;5116194;28;20174;-86
2024/03/22 03:52:55;;;;;;;54.53;40.07;;;9.20;90.40;;;;;;5116380;28;20202;-86
2024/03/22 03:55:22;;;;;;;59.17;41.63;;;9.30;90.20;;;;;;5117829;28;20653;-88
2024/03/22 03:57:50;;;;;;;51.23;40.93;;;9.30;90.30;;;;;;5117341;28;20205;-86
2024/03/22 04:00:15;;;;;;;52.77;39.07;;;9.30;90.20;;;;;;5116152;28;20215;-86
2024/03/22 04:02:41;;;;;;;53.57;42.30;;;9.20;90.30;;;;;;5116201;28;20193;-86
2024/03/22 04:05:07;;;;;;;58.33;42.20;;;9.20;90.30;;;;;;5116330;28;20182;-86
2024/03/22 04:07:32;;;;;;;61.07;43.10;;;9.30;90.30;;;;;;5117340;28;20548;-86
2024/03/22 04:10:00;;;;;;;57.23;42.87;;;9.20;90.30;;;;;;5116188;28;20170;-86
2024/03/22 04:12:26;;;;;;;59.93;43.67;;;9.30;90.40;;;;;;5115924;28;20201;-86
2024/03/22 04:14:52;;;;;;;63.03;43.87;;;9.30;90.50;;;;;;5117104;28;20253;-86
2024/03/22 04:17:17;;;;;;;58.97;43.07;;;9.20;90.50;;;;;;5115686;28;20255;-87
2024/03/22 04:19:43;;;;;;;59.73;41.00;;;9.30;90.50;;;;;;5115702;28;20188;-86
2024/03/22 04:22:09;;;;;;;55.63;37.13;;;9.20;90.70;;;;;;5116107;28;20190;-87
2024/03/22 04:24:34;;;;;;;61.20;41.67;;;9.30;90.60;;;;;;5117057;28;20530;-86
2024/03/22 04:27:00;;;;;;;60.40;41.83;;;9.30;90.50;;;;;;5115897;28;20174;-88
2024/03/22 04:29:25;;;;;;;61.83;41.73;;;9.30;90.40;;;;;;5116964;28;20194;-86
2024/03/22 04:31:50;;;;;;;64.30;42.53;;;9.40;90.40;;;;;;5115716;28;20634;-86
2024/03/22 04:34:16;;;;;;;63.33;41.83;;;9.40;90.40;;;;;;5116438;28;20170;-86
2024/03/22 04:36:41;;;;;;;60.53;40.87;;;9.50;90.20;;;;;;5117461;28;20178;-87
2024/03/22 04:39:09;;;;;;;63.70;42.33;;;9.50;90.10;;;;;;5116111;28;20298;-86
2024/03/22 04:41:35;;;;;;;61.10;43.50;;;9.50;90.10;;;;;;5115098;28;20194;-87
2024/03/22 04:44:01;;;;;;;65.33;43.30;;;9.50;90.10;;;;;;5115276;28;20707;-86
2024/03/22 04:46:26;;;;;;;65.50;43.40;;;9.40;90.30;;;;;;5116893;28;20171;-86
2024/03/22 04:48:52;;;;;;;65.80;43.43;;;9.40;90.30;;;;;;5115158;28;20212;-86
2024/03/22 04:51:17;;;;;;;65.97;43.53;;;9.40;90.40;;;;;;5115132;28;20180;-86
2024/03/22 04:53:44;;;;;;;65.27;44.77;;;9.40;90.40;;;;;;5117191;28;20170;-88
2024/03/22 04:56:09;;;;;;;69.57;44.73;;;9.40;90.40;;;;;;5116260;28;20190;-89
2024/03/22 04:58:35;;;;;;;68.27;45.53;;;9.40;90.50;;;;;;5115181;28;20201;-86
2024/03/22 05:01:00;;;;;;;70.30;46.87;;;9.40;90.50;;;;;;5115242;28;20266;-86
2024/03/22 05:03:26;;;;;;;66.90;45.83;;;9.40;90.70;;;;;;5116501;28;20205;-86
2024/03/22 05:05:51;;;;;;;70.27;45.63;;;9.40;90.80;;;;;;5116058;28;20186;-86
2024/03/22 05:08:17;;;;;;;66.20;43.50;;;9.40;90.90;;;;;;5116062;28;20208;-86
2024/03/22 05:10:43;;;;;;;69.60;45.63;;;9.40;90.90;;;;;;5115368;28;20170;-87
2024/03/22 05:13:08;;;;;;;73.50;46.17;;;9.40;90.90;;;;;;5116668;28;20243;-87
2024/03/22 05:15:34;;;;;;;78.57;49.00;;;9.50;90.90;;;;;;5116130;28;20178;-86
2024/03/22 05:18:00;;;;;;;79.53;44.73;;;9.50;90.80;;;;;;5116101;28;20265;-88
2024/03/22 05:20:25;;;;;;;77.83;47.80;;;9.60;90.70;;;;;;5115897;28;20170;-88
2024/03/22 05:22:51;;;;;;;86.27;49.30;;;9.60;90.70;;;;;;5114840;28;20201;-86
2024/03/22 05:25:17;;;;;;;72.43;47.90;;;9.60;90.80;;;;;;5116247;28;20232;-86
2024/03/22 05:27:42;;;;;;;83.47;50.97;;;9.60;90.70;;;;;;5115984;28;20174;-86
2024/03/22 05:30:09;;;;;;;84.17;50.50;;;9.70;90.70;;;;;;5115823;28;20200;-86
2024/03/22 05:32:35;;;;;;;85.13;50.27;;;9.60;90.70;;;;;;5116226;27;20327;-88
2024/03/22 05:35:01;;;;;;;86.03;53.20;;;9.60;90.80;;;;;;5114588;28;20617;-86
2024/03/22 05:37:26;;;;;;;84.50;49.33;;;9.70;90.80;;;;;;5116193;28;20169;-87
2024/03/22 05:39:52;;;;;;;84.47;53.27;;;9.70;90.90;;;;;;5114612;28;20177;-86
2024/03/22 05:42:17;;;;;;;77.63;50.63;;;9.70;90.90;;;;;;5114041;28;20190;-88
2024/03/22 05:44:44;;;;;;;78.17;51.53;;;9.80;90.80;;;;;;5114198;28;20231;-87
2024/03/22 05:47:09;;;;;;;76.27;48.70;;;9.80;90.80;;;;;;5114015;28;20180;-86
2024/03/22 05:49:35;;;;;;;77.37;50.63;;;9.70;90.90;;;;;;5115932;28;20206;-87
2024/03/22 05:52:00;;;;;;;77.53;48.80;;;9.80;90.90;;;;;;5115712;28;20542;-87
2024/03/22 05:54:26;;;;;;;79.50;51.30;;;9.70;90.90;;;;;;5114657;28;20166;-86
2024/03/22 05:56:51;;;;;;;80.37;49.50;;;9.80;90.90;;;;;;5115960;28;20170;-88
2024/03/22 05:59:17;;;;;;;73.53;45.40;;;9.80;90.90;;;;;;5114306;28;20226;-87
2024/03/22 06:01:43;;;;;;;82.10;51.13;;;9.80;90.90;;;;;;5115860;28;20274;-87
2024/03/22 06:04:08;;;;;;;82.20;49.77;;;9.80;90.90;;;;;;5115812;28;20174;-86
2024/03/22 06:06:35;;;;;;;87.27;54.70;;;9.90;90.90;;;;;;5115244;28;20200;-86
2024/03/22 06:09:03;;;;;;;86.80;53.73;;;9.90;90.90;;;;;;5115518;28;20209;-87
2024/03/22 06:11:30;;;;;;;87.63;53.30;;;9.90;91.00;;;;;;5115472;28;20198;-86
2024/03/22 06:13:55;;;;;;;87.13;52.43;;;9.90;91.00;;;;;;5115486;28;20170;-87
2024/03/22 06:16:21;;;;;;;67.73;45.07;;;9.90;91.00;;;;;;5115191;28;20170;-86
2024/03/22 06:18:46;;;;;;;85.13;55.53;;;9.90;91.00;;;;;;5115484;28;20170;-86
2024/03/22 06:21:14;;;;;;;79.57;53.27;;;10.00;90.90;;;;;;5114548;28;20170;-87
2024/03/22 06:23:40;;;;;;;80.70;50.47;;;9.90;90.90;;;;;;5115594;28;20638;-87
2024/03/22 06:26:05;;;;;;;88.30;54.63;;;10.00;91.10;;;;;;5115846;28;20180;-87
2024/03/22 06:28:31;;;;;;;84.67;55.13;;;10.00;91.20;;;;;;5115446;28;20194;-89
2024/03/22 06:30:56;;;;;;;86.17;55.87;;;10.00;91.10;;;;;;5114052;28;20645;-87
2024/03/22 06:33:22;;;;;;;86.90;54.73;;;10.00;91.20;;;;;;5113936;28;20194;-87
2024/03/22 06:35:48;;;;;;;100.73;60.20;;;10.00;91.20;;;;;;5115797;28;20177;-86
2024/03/22 06:38:14;;;;;;;95.63;53.67;;;10.10;91.10;;;;;;5113758;28;20181;-87
2024/03/22 06:40:39;;;;;;;91.20;52.70;;;10.10;91.10;;;;;;5113640;28;20178;-88
2024/03/22 06:43:05;;;;;;;81.67;49.07;;;10.10;91.20;;;;;;5115469;28;20198;-87
2024/03/22 06:45:30;;;;;;;92.63;57.07;;;10.20;91.10;;;;;;5113669;28;20638;-88
2024/03/22 06:47:56;;;;;;;99.47;58.97;;;10.20;91.10;;;;;;5114939;28;20197;-86
2024/03/22 06:50:24;;;;;;;90.43;53.57;;;10.20;91.00;;;;;;5113187;28;20548;-87
2024/03/22 06:52:51;;;;;;;95.03;57.30;;;10.20;91.10;;;;;;5113545;28;20217;-87
2024/03/22 06:55:17;;;;;;;83.53;50.40;;;10.30;90.90;;;;;;5115004;28;20176;-86
2024/03/22 06:57:44;;;;;;;92.97;57.57;;;10.30;90.90;;;;;;5116182;28;20198;-87
2024/03/22 07:00:11;;;;;;;88.00;54.40;;;10.30;90.90;;;;;;5119453;28;20162;-86
2024/03/22 07:02:36;;;;;;;76.93;51.17;;;10.30;90.90;;;;;;5118779;28;20619;-89
2024/03/22 07:05:03;;;;;;;86.63;55.10;;;10.30;90.80;;;;;;5117878;28;20258;-87
2024/03/22 07:07:29;;;;;;;91.83;56.30;;;10.30;90.60;;;;;;5117949;28;20281;-89
2024/03/22 07:09:56;;;;;;;82.53;50.77;;;10.30;90.70;;;;;;5117994;28;20228;-87
2024/03/22 07:12:21;;;;;;;84.37;55.30;;;10.30;90.80;;;;;;5117758;28;20193;-89
2024/03/22 07:14:47;;;;;;;88.70;50.97;;;10.40;90.70;;;;;;5117092;28;20665;-90
2024/03/22 07:17:13;;;;;;;81.57;51.10;;;10.40;90.60;;;;;;5117056;28;20166;-87
2024/03/22 07:19:39;;;;;;;84.53;55.27;;;10.40;90.80;;;;;;5119015;28;20166;-87
2024/03/22 07:22:04;;;;;;;84.63;53.57;;;10.40;90.70;;;;;;5117866;28;20192;-87
2024/03/22 07:24:29;;;;;;;84.73;54.07;;;10.40;90.70;;;;;;5119088;28;20182;-87
2024/03/22 07:26:55;;;;;;;76.70;49.27;;;10.40;90.80;;;;;;5119166;28;20178;-86
2024/03/22 07:29:21;;;;;;;81.77;50.80;;;10.50;90.60;;;;;;5117293;28;20209;-87
2024/03/22 07:31:46;;;;;;;77.67;51.10;;;10.50;90.70;;;;;;5118895;28;20192;-87
2024/03/22 07:34:12;;;;;;;80.50;54.03;;;10.50;90.60;;;;;;5118921;27;20170;-87
2024/03/22 07:36:39;;;;;;;83.57;50.93;;;10.50;90.50;;;;;;5118087;28;20637;-86
2024/03/22 07:39:08;;;;;;;82.37;50.93;;;10.50;90.50;;;;;;5118415;28;20174;-87
2024/03/22 07:41:34;;;;;;;86.97;51.97;;;10.50;90.50;;;;;;5116717;28;20197;-88
2024/03/22 07:44:00;;;;;;;84.33;48.50;;;10.50;90.70;;;;;;5117071;28;20170;-88
2024/03/22 07:46:26;;;;;;;82.10;47.57;;;10.60;90.50;;;;;;5117412;28;20224;-89
2024/03/22 07:48:52;;;;;;;74.40;48.57;;;10.50;90.60;;;;;;5116668;28;20194;-90
2024/03/22 07:51:17;;;;;;;76.77;48.83;;;10.50;90.50;;;;;;5116996;28;20195;-90
2024/03/22 07:53:43;;;;;;;66.60;40.93;;;10.50;90.60;;;;;;5116410;28;20181;-92
2024/03/22 07:56:09;;;;;;;80.23;46.70;;;10.60;90.60;;;;;;5117619;28;20642;-90
2024/03/22 07:58:34;;;;;;;78.23;49.73;;;10.50;90.60;;;;;;5117066;28;20230;-88
2024/03/22 08:01:00;;;;;;;81.60;48.70;;;10.60;90.50;;;;;;5117457;28;20250;-88
2024/03/22 08:03:25;;;;;;;81.10;47.27;;;10.60;90.60;;;;;;5117051;28;20189;-88
2024/03/22 08:05:51;;;;;;;81.70;49.20;;;10.60;90.70;;;;;;5117941;28;20189;-87
2024/03/22 08:08:17;;;;;;;87.30;53.97;;;10.60;90.90;;;;;;5115147;28;20651;-86
2024/03/22 08:10:43;;;;;;;90.83;54.93;;;10.50;91.20;;;;;;5118617;28;20717;-87
2024/03/22 08:13:08;;;;;;;90.43;52.93;;;10.50;91.30;;;;;;5117552;28;20178;-87
2024/03/22 08:15:35;;;;;;;86.60;49.67;;;10.50;91.60;;;;;;5117457;27;20212;-88
2024/03/22 08:18:01;;;;;;;86.73;53.87;;;10.40;91.80;;;;;;5116727;28;20279;-87
2024/03/22 08:20:26;;;;;;;87.30;52.87;;;10.50;91.80;;;;;;5116735;28;20178;-87
2024/03/22 08:22:52;;;;;;;89.10;50.93;;;10.50;91.90;;;;;;5116421;28;20213;-87
2024/03/22 08:25:19;;;;;;;93.23;53.07;;;10.40;92.10;;;;;;5118214;28;20234;-86
2024/03/22 08:27:45;;;;;;;88.67;53.37;;;10.50;92.20;;;;;;5116123;28;20182;-87
2024/03/22 08:30:11;;;;;;;82.60;50.83;;;10.50;92.10;;;;;;5117737;28;20249;-87
2024/03/22 08:32:37;;;;;;;83.40;50.77;;;10.50;92.10;;;;;;5116614;28;20205;-88
2024/03/22 08:35:04;;;;;;;85.37;52.17;;;10.50;92.00;;;;;;5116137;28;20552;-87
2024/03/22 08:37:30;;;;;;;84.23;48.20;;;10.50;92.00;;;;;;5115848;28;20227;-87
2024/03/22 08:39:55;;;;;;;87.33;48.73;;;10.50;92.00;;;;;;5117081;27;20170;-87
2024/03/22 08:42:21;;;;;;;83.50;49.77;;;10.50;92.00;;;;;;5115984;28;20714;-87
2024/03/22 08:44:46;;;;;;;87.30;51.30;;;10.50;91.90;;;;;;5115685;28;20178;-87
2024/03/22 08:47:12;;;;;;;86.60;50.70;;;10.60;91.90;;;;;;5115435;28;20182;-90
2024/03/22 08:49:37;;;;;;;88.20;52.63;;;10.60;92.10;;;;;;5117727;28;20283;-86
2024/03/22 08:52:03;;;;;;;82.90;48.70;;;10.60;92.10;;;;;;5117539;28;20220;-88
2024/03/22 08:54:28;;;;;;;83.00;50.23;;;10.50;92.20;;;;;;5115375;28;20668;-88
2024/03/22 08:56:54;;;;;;;84.37;50.80;;;10.50;92.20;;;;;;5114766;28;20174;-87
2024/03/22 08:59:20;;;;;;;84.17;50.80;;;10.50;92.20;;;;;;5116132;28;20181;-88
2024/03/22 09:01:45;;;;;;;78.73;45.07;;;10.60;92.10;;;;;;5116069;28;20194;-87
2024/03/22 09:04:11;;;;;;;76.57;44.60;;;10.60;92.30;;;;;;5114822;28;20227;-88
2024/03/22 09:06:36;;;;;;;80.60;48.23;;;10.60;92.30;;;;;;5115910;27;20657;-88
2024/03/22 09:09:03;;;;;;;85.37;51.73;;;10.60;92.50;;;;;;5116247;28;20205;-87
2024/03/22 09:11:29;;;;;;;89.47;53.30;;;10.60;92.60;;;;;;5116611;28;20186;-87
2024/03/22 09:13:54;;;;;;;86.03;52.93;;;10.60;92.60;;;;;;5116341;28;20169;-88
2024/03/22 09:16:23;;;;;;;79.17;47.43;;;10.60;92.60;;;;;;5114770;28;20699;-87
2024/03/22 09:18:49;;;;;;;87.77;54.70;;;10.60;92.70;;;;;;5114184;28;20196;-88
2024/03/22 09:21:14;;;;;;;83.03;48.67;;;10.50;92.80;;;;;;5116246;28;20269;-87
2024/03/22 09:23:40;;;;;;;84.03;49.77;;;10.50;92.80;;;;;;5116119;28;20166;-88
2024/03/22 09:26:06;;;;;;;83.13;49.03;;;10.50;92.90;;;;;;5115330;28;20602;-88
2024/03/22 09:28:31;;;;;;;87.43;52.73;;;10.50;92.70;;;;;;5114102;28;20201;-88
2024/03/22 09:30:57;;;;;;;79.73;49.70;;;10.50;92.80;;;;;;5115483;28;20162;-88
2024/03/22 09:33:23;;;;;;;78.57;46.97;;;10.50;92.90;;;;;;5113999;28;20186;-88
2024/03/22 09:35:48;;;;;;;76.20;49.30;;;10.50;93.00;;;;;;5115283;28;20633;-88
2024/03/22 09:38:15;;;;;;;73.90;46.03;;;10.50;93.00;;;;;;5113841;28;20182;-88
2024/03/22 09:40:41;;;;;;;75.33;44.60;;;10.50;93.00;;;;;;5115906;28;20543;-88
2024/03/22 09:43:07;;;;;;;75.90;45.50;;;10.40;93.10;;;;;;5114744;28;20688;-88
2024/03/22 09:45:33;;;;;;;80.00;43.93;;;10.50;93.10;;;;;;5115562;28;20171;-88
2024/03/22 09:47:59;;;;;;;79.83;47.07;;;10.50;93.10;;;;;;5115518;27;20208;-87
2024/03/22 09:50:26;;;;;;;66.90;39.30;;;10.50;93.10;;;;;;5114141;28;20176;-88
2024/03/22 09:52:52;;;;;;;67.90;40.63;;;10.50;93.00;;;;;;5115543;28;20696;-87
2024/03/22 09:55:24;;;;;;;67.37;40.53;;;10.50;93.10;;;;;;5115357;28;20702;-88
2024/03/22 09:57:50;;;;;;;66.63;40.00;;;10.40;93.30;;;;;;5114203;28;20169;-87
2024/03/22 10:00:18;;;;;;;62.73;37.77;;;10.40;93.40;;;;;;5115444;28;20166;-88
2024/03/22 10:02:48;;;;;;;63.07;37.33;;;10.40;93.60;;;;;;5114272;28;20717;-88
2024/03/22 10:05:14;;;;;;;61.63;35.97;;;10.40;93.80;;;;;;5113809;28;20169;-87
2024/03/22 10:07:41;;;;;;;65.77;36.73;;;10.40;93.90;;;;;;5115254;28;20697;-87
2024/03/22 10:10:07;;;;;;;66.30;37.67;;;10.40;93.90;;;;;;5113725;28;20256;-87
2024/03/22 10:12:33;;;;;;;64.67;37.20;;;10.40;94.00;;;;;;5115160;28;20189;-87
2024/03/22 10:14:58;;;;;;;63.73;36.10;;;10.30;94.00;;;;;;5115224;28;20278;-88
2024/03/22 10:17:27;;;;;;;51.57;30.63;;;10.30;94.10;;;;;;5115354;28;20182;-88
2024/03/22 10:19:52;;;;;;;56.47;33.17;;;10.30;94.20;;;;;;5113781;28;20202;-87
2024/03/22 10:22:18;;;;;;;60.80;33.77;;;10.30;94.20;;;;;;5113880;28;20628;-87
2024/03/22 10:24:44;;;;;;;55.33;32.43;;;10.30;94.20;;;;;;5115063;28;20186;-87
2024/03/22 10:27:10;;;;;;;57.03;33.67;;;10.30;94.20;;;;;;5115086;28;20247;-88
2024/03/22 10:29:36;;;;;;;43.63;25.23;;;10.30;94.30;;;;;;5114427;28;20237;-88
2024/03/22 10:32:02;;;;;;;42.00;27.00;;;10.20;94.30;;;;;;5114870;28;20243;-89
2024/03/22 10:34:28;;;;;;;39.97;22.33;;;10.20;94.20;;;;;;5115288;28;20169;-87
2024/03/22 10:36:55;;;;;;;36.57;21.93;;;10.30;94.20;;;;;;5115661;28;20169;-87
2024/03/22 10:39:23;;;;;;;43.97;28.27;;;10.30;94.10;;;;;;5115245;28;20170;-88
2024/03/22 10:41:49;;;;;;;48.20;28.83;;;10.30;94.10;;;;;;5115109;28;20193;-88
2024/03/22 10:44:17;;;;;;;42.00;27.60;;;10.30;94.20;;;;;;5113729;28;20238;-88
2024/03/22 10:46:48;;;;;;;38.00;25.73;;;10.30;94.10;;;;;;5115118;28;20170;-88
2024/03/22 10:49:19;;;;;;;31.53;18.17;;;10.20;94.20;;;;;;5115263;28;20197;-88
2024/03/22 10:51:51;;;;;;;28.40;19.20;;;10.20;94.20;;;;;;5115367;28;20194;-87
2024/03/22 10:54:21;;;;;;;27.27;18.57;;;10.20;94.10;;;;;;5114339;28;20207;-88
2024/03/22 10:56:48;;;;;;;30.63;20.07;;;10.10;94.10;;;;;;5115320;28;20158;-88
2024/03/22 10:59:19;;;;;;;19.77;14.83;;;10.10;94.10;;;;;;5115167;28;20189;-88
2024/03/22 11:01:45;;;;;;;21.80;15.53;;;10.10;93.90;;;;;;5114613;28;20685;-88
2024/03/22 11:04:11;;;;;;;21.80;16.70;;;10.10;93.90;;;;;;5115072;28;20174;-88
2024/03/22 11:06:37;;;;;;;22.80;16.23;;;10.10;93.90;;;;;;5114536;28;20541;-87
2024/03/22 11:09:06;;;;;;;19.17;12.50;;;10.20;93.80;;;;;;5114171;28;20202;-88
2024/03/22 11:11:37;;;;;;;21.30;16.13;;;10.20;93.80;;;;;;5113704;28;20552;-88
2024/03/22 11:14:03;;;;;;;21.53;16.40;;;10.20;93.70;;;;;;5115357;28;20142;-87
2024/03/22 11:16:29;;;;;;;22.60;14.90;;;10.20;93.60;;;;;;5113940;28;20177;-88
2024/03/22 11:18:55;;;;;;;20.13;15.37;;;10.30;93.60;;;;;;5114192;28;20173;-88
2024/03/22 11:21:20;;;;;;;19.00;14.93;;;10.30;93.50;;;;;;5115493;28;20278;-88
2024/03/22 11:23:46;;;;;;;19.07;15.87;;;10.40;93.50;;;;;;5113835;28;20554;-88
2024/03/22 11:26:12;;;;;;;19.27;15.17;;;10.40;93.40;;;;;;5115107;28;20170;-87
2024/03/22 11:28:39;;;;;;;18.07;14.67;;;10.40;93.20;;;;;;5115094;28;20247;-88
2024/03/22 11:31:04;;;;;;;18.90;15.83;;;10.40;93.20;;;;;;5113351;28;20591;-88
2024/03/22 11:33:30;;;;;;;18.73;15.17;;;10.40;93.20;;;;;;5113163;28;20231;-88
2024/03/22 11:35:59;;;;;;;19.23;14.67;;;10.40;93.30;;;;;;5114094;28;20166;-88
2024/03/22 11:38:27;;;;;;;15.60;14.00;;;10.40;93.20;;;;;;5114354;28;20174;-88
2024/03/22 11:40:54;;;;;;;18.07;13.93;;;10.40;93.10;;;;;;5113017;28;20601;-89
2024/03/22 11:43:20;;;;;;;16.93;14.73;;;10.40;93.20;;;;;;5113158;28;20233;-88
2024/03/22 11:45:45;;;;;;;17.00;14.13;;;10.40;93.30;;;;;;5118523;28;20601;-88
2024/03/22 11:48:11;;;;;;;14.83;12.33;;;10.40;93.30;;;;;;5117201;28;20216;-88
2024/03/22 11:50:37;;;;;;;16.03;11.23;;;10.30;93.30;;;;;;5117031;28;20257;-88
2024/03/22 11:53:05;;;;;;;11.27;10.07;;;10.20;93.50;;;;;;5117587;28;20198;-88
2024/03/22 11:55:31;;;;;;;10.07;8.87;;;10.00;93.50;;;;;;5117339;28;20177;-88
2024/03/22 11:58:00;;;;;;;13.33;9.07;;;10.00;93.60;;;;;;5117359;28;20173;-87
2024/03/22 12:00:27;;;;;;;9.33;8.37;;;10.00;93.70;;;;;;5116983;28;20175;-87
2024/03/22 12:02:53;;;;;;;11.13;8.97;;;10.00;93.80;;;;;;5117535;28;20221;-88
2024/03/22 12:05:19;;;;;;;9.77;8.77;;;9.90;94.10;;;;;;5118408;28;20166;-87
2024/03/22 12:07:44;;;;;;;9.10;8.10;;;9.90;94.20;;;;;;5117170;28;20717;-87
2024/03/22 12:10:10;;;;;;;8.53;7.73;;;9.80;94.40;;;;;;5118999;28;20179;-88
2024/03/22 12:12:36;;;;;;;6.63;6.03;;;9.80;94.50;;;;;;5117294;28;20194;-88
2024/03/22 12:15:03;;;;;;;7.50;6.90;;;9.80;94.60;;;;;;5116524;28;20178;-89
2024/03/22 12:17:29;;;;;;;6.97;6.27;;;9.70;94.50;;;;;;5116342;28;20170;-90
2024/03/22 12:19:55;;;;;;;7.63;7.03;;;9.80;94.60;;;;;;5118570;28;20269;-89
2024/03/22 12:22:22;;;;;;;7.97;7.27;;;9.80;94.60;;;;;;5118462;28;20194;-89
2024/03/22 12:24:48;;;;;;;6.23;5.80;;;9.90;94.60;;;;;;5118663;28;20178;-87
2024/03/22 12:27:13;;;;;;;7.23;6.70;;;9.80;94.50;;;;;;5118658;28;20203;-90